createdAt,value
2018-10-03T00:01:36.739Z,5.33
2018-10-03T00:04:06.078Z,5.43
2018-10-03T00:06:35.428Z,4.67
2018-10-03T00:09:06.183Z,6.77
2018-10-03T00:11:35.514Z,4.30
2018-10-03T00:14:05.159Z,4.87
2018-10-03T00:16:34.523Z,3.90
2018-10-03T00:19:04.147Z,3.70
2018-10-03T00:21:33.489Z,4.00
2018-10-03T00:24:03.081Z,4.33
2018-10-03T00:26:32.454Z,2.97
2018-10-03T00:29:02.072Z,5.00
2018-10-03T00:31:31.526Z,3.70
2018-10-03T00:34:00.964Z,6.00
2018-10-03T00:36:30.546Z,4.80
2018-10-03T00:39:00.201Z,4.33
2018-10-03T00:41:30.158Z,4.73
2018-10-03T00:43:59.663Z,3.70
2018-10-03T00:46:29.453Z,5.43
2018-10-03T00:48:59.261Z,5.50
2018-10-03T00:51:28.796Z,4.20
2018-10-03T00:53:58.501Z,5.43
2018-10-03T00:56:28.374Z,3.87
2018-10-03T00:58:57.902Z,4.37
2018-10-03T01:01:27.617Z,4.80
2018-10-03T01:03:57.722Z,3.13
2018-10-03T01:06:27.439Z,3.70
2018-10-03T01:08:57.201Z,3.60
2018-10-03T01:11:27.620Z,4.67
2018-10-03T01:13:57.627Z,7.00
2018-10-03T01:16:28.070Z,4.77
2018-10-03T01:19:04.118Z,4.70
2018-10-03T01:21:33.462Z,4.30
2018-10-03T01:24:02.806Z,4.80
2018-10-03T01:26:32.194Z,3.47
2018-10-03T01:29:01.642Z,4.90
2018-10-03T01:31:31.021Z,5.40
2018-10-03T01:34:00.587Z,4.67
2018-10-03T01:36:30.208Z,4.20
2018-10-03T01:38:59.684Z,3.73
2018-10-03T01:41:29.138Z,5.30
2018-10-03T01:43:58.610Z,3.00
2018-10-03T01:46:28.229Z,5.43
2018-10-03T01:48:57.893Z,5.47
2018-10-03T01:51:27.581Z,4.70
2018-10-03T01:53:57.205Z,6.77
2018-10-03T01:56:26.912Z,5.50
2018-10-03T01:58:56.993Z,5.17
2018-10-03T02:01:26.884Z,5.33
2018-10-03T02:03:56.679Z,5.07
2018-10-03T02:06:26.400Z,5.90
2018-10-03T02:08:56.328Z,4.10
2018-10-03T02:11:26.518Z,3.13
2018-10-03T02:13:56.944Z,6.17
2018-10-03T02:16:26.763Z,7.20
2018-10-03T02:18:56.249Z,5.13
2018-10-03T02:21:25.749Z,4.13
2018-10-03T02:23:55.494Z,3.73
2018-10-03T02:26:25.133Z,5.37
2018-10-03T02:28:54.857Z,6.67
2018-10-03T02:31:25.010Z,5.07
2018-10-03T02:33:54.541Z,7.50
2018-10-03T02:36:24.281Z,7.80
2018-10-03T02:38:53.972Z,8.43
2018-10-03T02:41:23.871Z,6.53
2018-10-03T02:43:54.117Z,5.53
2018-10-03T02:46:24.497Z,5.50
2018-10-03T02:48:54.662Z,6.27
2018-10-03T02:51:24.547Z,6.43
2018-10-03T02:53:54.677Z,6.27
2018-10-03T02:56:24.499Z,4.83
2018-10-03T02:58:54.589Z,6.30
2018-10-03T03:01:24.541Z,6.30
2018-10-03T03:03:54.473Z,4.73
2018-10-03T03:06:24.250Z,6.23
2018-10-03T03:08:54.069Z,5.07
2018-10-03T03:11:23.961Z,6.10
2018-10-03T03:13:53.942Z,4.33
2018-10-03T03:16:23.814Z,5.50
2018-10-03T03:18:53.499Z,6.50
2018-10-03T03:21:23.335Z,5.60
2018-10-03T03:23:53.065Z,6.47
2018-10-03T03:26:22.895Z,5.70
2018-10-03T03:28:52.694Z,7.23
2018-10-03T03:31:22.376Z,6.03
2018-10-03T03:33:51.910Z,8.77
2018-10-03T03:36:21.418Z,7.53
2018-10-03T03:38:50.845Z,6.23
2018-10-03T03:41:20.301Z,7.70
2018-10-03T03:43:49.746Z,7.10
2018-10-03T03:46:19.162Z,4.23
2018-10-03T03:48:48.549Z,4.97
2018-10-03T03:51:17.906Z,6.70
2018-10-03T03:53:47.208Z,5.33
2018-10-03T03:56:16.590Z,4.37
2018-10-03T03:58:45.905Z,7.47
2018-10-03T04:01:15.296Z,6.37
2018-10-03T04:03:44.962Z,5.50
2018-10-03T04:06:14.284Z,4.60
2018-10-03T04:08:43.619Z,5.47
2018-10-03T04:11:12.999Z,7.63
2018-10-03T04:13:42.412Z,6.10
2018-10-03T04:16:11.726Z,3.57
2018-10-03T04:18:41.170Z,5.57
2018-10-03T04:21:10.503Z,5.53
2018-10-03T04:23:39.882Z,4.70
2018-10-03T04:26:09.578Z,3.93
2018-10-03T04:28:38.947Z,5.10
2018-10-03T04:31:08.262Z,7.93
2018-10-03T04:33:37.593Z,5.23
2018-10-03T04:36:06.932Z,5.37
2018-10-03T04:38:36.231Z,5.43
2018-10-03T04:41:05.530Z,7.93
2018-10-03T04:43:34.817Z,5.47
2018-10-03T04:46:04.182Z,4.27
2018-10-03T04:48:33.495Z,4.43
2018-10-03T04:51:02.939Z,5.43
2018-10-03T04:53:32.386Z,5.33
2018-10-03T04:56:01.863Z,3.67
2018-10-03T04:58:31.397Z,5.27
2018-10-03T05:01:00.758Z,5.07
2018-10-03T05:03:30.302Z,4.47
2018-10-03T05:05:59.694Z,6.47
2018-10-03T05:08:29.297Z,4.70
2018-10-03T05:10:58.761Z,5.33
2018-10-03T05:13:28.225Z,6.13
2018-10-03T05:15:58.422Z,7.67
2018-10-03T05:18:28.076Z,7.63
2018-10-03T05:20:57.681Z,8.77
2018-10-03T05:23:27.318Z,5.77
2018-10-03T05:25:56.835Z,4.37
2018-10-03T05:28:26.804Z,4.07
2018-10-03T05:30:56.464Z,6.23
2018-10-03T05:33:26.139Z,4.23
2018-10-03T05:35:55.968Z,3.07
2018-10-03T05:38:26.661Z,5.20
2018-10-03T05:40:56.450Z,8.57
2018-10-03T05:43:26.233Z,4.17
2018-10-03T05:45:56.063Z,6.97
2018-10-03T05:48:25.642Z,4.27
2018-10-03T05:50:55.291Z,3.77
2018-10-03T05:53:25.091Z,5.03
2018-10-03T05:55:54.824Z,3.83
2018-10-03T05:58:24.376Z,5.93
2018-10-03T06:00:54.019Z,5.10
2018-10-03T06:03:23.581Z,4.00
2018-10-03T06:05:53.323Z,3.80
2018-10-03T06:08:23.572Z,5.13
2018-10-03T06:10:53.650Z,3.17
2018-10-03T06:13:23.395Z,2.10
2018-10-03T06:15:53.442Z,4.30
2018-10-03T06:18:23.714Z,4.67
2018-10-03T06:20:53.396Z,4.57
2018-10-03T06:23:23.618Z,4.67
2018-10-03T06:25:53.229Z,4.60
2018-10-03T06:28:23.762Z,4.67
2018-10-03T06:30:53.573Z,3.90
2018-10-03T06:33:23.675Z,4.23
2018-10-03T06:35:53.547Z,3.63
2018-10-03T06:38:23.325Z,2.57
2018-10-03T06:40:53.483Z,4.43
2018-10-03T06:43:23.202Z,2.33
2018-10-03T06:45:52.969Z,3.60
2018-10-03T06:48:22.604Z,3.10
2018-10-03T06:50:52.413Z,4.47
2018-10-03T06:53:22.025Z,2.40
2018-10-03T06:55:51.604Z,3.53
2018-10-03T06:58:21.017Z,2.67
2018-10-03T07:00:50.537Z,3.67
2018-10-03T07:03:20.202Z,2.60
2018-10-03T07:05:49.619Z,3.77
2018-10-03T07:08:19.027Z,4.13
2018-10-03T07:10:48.356Z,3.10
2018-10-03T07:13:17.702Z,2.23
2018-10-03T07:15:47.229Z,2.83
2018-10-03T07:18:16.754Z,3.53
2018-10-03T07:20:46.199Z,3.17
2018-10-03T07:23:15.502Z,2.43
2018-10-03T07:25:45.451Z,2.47
2018-10-03T07:28:14.844Z,2.43
2018-10-03T07:30:44.365Z,3.30
2018-10-03T07:33:13.653Z,3.13
2018-10-03T07:35:43.022Z,2.47
2018-10-03T07:38:12.462Z,2.93
2018-10-03T07:40:41.825Z,4.03
2018-10-03T07:43:11.134Z,3.03
2018-10-03T07:45:40.544Z,4.23
2018-10-03T07:48:09.962Z,3.00
2018-10-03T07:50:39.328Z,3.43
2018-10-03T07:53:08.738Z,3.53
2018-10-03T07:55:38.164Z,3.00
2018-10-03T07:58:07.644Z,3.50
2018-10-03T08:00:36.961Z,3.00
2018-10-03T08:03:12.378Z,2.57
2018-10-03T08:05:41.801Z,2.30
2018-10-03T08:08:11.313Z,3.80
2018-10-03T08:10:41.210Z,4.77
2018-10-03T08:13:10.844Z,5.90
2018-10-03T08:15:40.318Z,3.70
2018-10-03T08:18:09.629Z,2.73
2018-10-03T08:20:38.934Z,6.23
2018-10-03T08:23:08.629Z,4.07
2018-10-03T08:25:37.985Z,2.93
2018-10-03T08:28:07.732Z,3.73
2018-10-03T08:30:37.228Z,4.63
2018-10-03T08:33:06.674Z,2.97
2018-10-03T08:35:35.986Z,3.37
2018-10-03T08:38:05.677Z,4.63
2018-10-03T08:40:34.974Z,3.93
2018-10-03T08:43:05.345Z,3.33
2018-10-03T08:45:34.805Z,4.80
2018-10-03T08:48:04.201Z,2.87
2018-10-03T08:50:33.652Z,3.37
2018-10-03T08:53:03.027Z,2.63
2018-10-03T08:55:32.417Z,4.23
2018-10-03T08:58:01.960Z,2.73
2018-10-03T09:00:31.261Z,2.80
2018-10-03T09:03:00.897Z,3.70
2018-10-03T09:05:30.390Z,3.53
2018-10-03T09:08:11.630Z,2.90
2018-10-03T09:10:42.756Z,3.30
2018-10-03T09:13:12.753Z,3.20
2018-10-03T09:15:42.259Z,2.27
2018-10-03T09:18:11.661Z,2.73
2018-10-03T09:20:40.970Z,3.27
2018-10-03T09:23:10.389Z,2.00
2018-10-03T09:25:39.732Z,2.50
2018-10-03T09:28:09.288Z,2.13
2018-10-03T09:30:38.576Z,1.70
2018-10-03T09:33:08.032Z,2.63
2018-10-03T09:35:37.431Z,1.53
2018-10-03T09:38:06.846Z,2.27
2018-10-03T09:40:36.475Z,1.60
2018-10-03T09:43:05.799Z,1.83
2018-10-03T09:45:35.779Z,5.30
2018-10-03T09:48:05.272Z,6.23
2018-10-03T09:50:34.782Z,1.80
2018-10-03T09:53:04.073Z,2.47
2018-10-03T09:55:33.487Z,2.33
2018-10-03T09:58:02.858Z,3.03
2018-10-03T10:00:37.546Z,3.60
2018-10-03T10:03:06.957Z,2.17
2018-10-03T10:05:36.330Z,2.83
2018-10-03T10:08:05.773Z,3.77
2018-10-03T10:10:35.075Z,6.70
2018-10-03T10:13:04.504Z,3.03
2018-10-03T10:15:33.965Z,2.27
2018-10-03T10:18:03.289Z,3.50
2018-10-03T10:20:32.617Z,2.30
2018-10-03T10:23:02.035Z,2.63
2018-10-03T10:25:31.425Z,2.67
2018-10-03T10:28:01.396Z,3.03
2018-10-03T10:30:31.013Z,2.67
2018-10-03T10:33:00.681Z,3.70
2018-10-03T10:35:30.188Z,2.90
2018-10-03T10:37:59.751Z,2.83
2018-10-03T10:40:29.720Z,5.77
2018-10-03T10:42:59.523Z,2.70
2018-10-03T10:45:29.998Z,4.90
2018-10-03T10:47:59.689Z,2.60
2018-10-03T10:50:29.664Z,2.53
2018-10-03T10:52:59.008Z,2.93
2018-10-03T10:55:28.620Z,3.17
2018-10-03T10:57:58.528Z,2.50
2018-10-03T11:00:28.274Z,2.20
2018-10-03T11:02:58.848Z,3.57
2018-10-03T11:05:28.341Z,2.87
2018-10-03T11:07:57.742Z,3.17
2018-10-03T11:10:28.514Z,2.37
2018-10-03T11:12:58.000Z,3.30
2018-10-03T11:15:27.456Z,2.47
2018-10-03T11:17:56.770Z,2.20
2018-10-03T11:20:26.291Z,2.73
2018-10-03T11:22:55.701Z,4.73
2018-10-03T11:25:25.216Z,2.27
2018-10-03T11:27:54.718Z,2.83
2018-10-03T11:30:24.226Z,2.80
2018-10-03T11:32:53.572Z,2.07
2018-10-03T11:35:22.972Z,2.20
2018-10-03T11:37:52.409Z,2.07
2018-10-03T11:40:21.861Z,3.63
2018-10-03T11:42:51.285Z,3.30
2018-10-03T11:45:20.607Z,2.60
2018-10-03T11:47:50.095Z,2.27
2018-10-03T11:50:19.503Z,2.43
2018-10-03T11:52:49.051Z,2.33
2018-10-03T11:55:18.372Z,2.50
2018-10-03T11:57:48.166Z,1.87
2018-10-03T12:00:17.694Z,2.47
2018-10-03T12:02:47.144Z,1.87
2018-10-03T12:05:16.625Z,3.90
2018-10-03T12:07:46.871Z,2.57
2018-10-03T12:10:16.226Z,3.50
2018-10-03T12:12:45.917Z,3.17
2018-10-03T12:15:16.482Z,2.57
2018-10-03T12:17:46.086Z,3.97
2018-10-03T12:20:15.577Z,2.67
2018-10-03T12:22:45.141Z,5.13
2018-10-03T12:25:14.781Z,2.87
2018-10-03T12:27:44.203Z,4.07
2018-10-03T12:30:13.667Z,4.33
2018-10-03T12:32:43.402Z,2.30
2018-10-03T12:35:13.236Z,2.97
2018-10-03T12:37:42.825Z,3.73
2018-10-03T12:40:12.654Z,6.07
2018-10-03T12:42:42.260Z,3.10
2018-10-03T12:45:12.773Z,4.03
2018-10-03T12:47:42.429Z,3.37
2018-10-03T12:50:12.059Z,3.57
2018-10-03T12:52:41.513Z,4.00
2018-10-03T12:55:11.930Z,3.43
2018-10-03T12:57:41.414Z,4.27
2018-10-03T13:00:10.976Z,3.33
2018-10-03T13:02:40.587Z,3.67
2018-10-03T13:05:10.217Z,3.87
2018-10-03T13:07:39.913Z,6.57
2018-10-03T13:10:09.430Z,7.57
2018-10-03T13:12:39.092Z,3.50
2018-10-03T13:15:08.709Z,3.83
2018-10-03T13:17:38.288Z,3.40
2018-10-03T13:20:08.545Z,3.60
2018-10-03T13:22:38.869Z,4.43
2018-10-03T13:25:09.071Z,2.50
2018-10-03T13:27:39.083Z,2.90
2018-10-03T13:30:08.973Z,3.13
2018-10-03T13:32:38.682Z,3.03
2018-10-03T13:35:08.649Z,2.70
2018-10-03T13:37:38.340Z,2.50
2018-10-03T13:40:08.039Z,3.67
2018-10-03T13:42:37.827Z,2.57
2018-10-03T13:45:08.023Z,2.60
2018-10-03T13:47:37.839Z,3.57
2018-10-03T13:50:08.003Z,3.80
2018-10-03T13:52:37.526Z,2.30
2018-10-03T13:55:07.318Z,3.37
2018-10-03T13:57:37.440Z,4.00
2018-10-03T14:00:08.249Z,3.50
2018-10-03T14:02:37.932Z,3.00
2018-10-03T14:05:07.718Z,2.57
2018-10-03T14:07:38.171Z,2.17
2018-10-03T14:10:07.882Z,2.67
2018-10-03T14:12:37.432Z,2.77
2018-10-03T14:15:07.127Z,4.40
2018-10-03T14:17:36.930Z,3.63
2018-10-03T14:20:06.939Z,3.07
2018-10-03T14:22:37.720Z,4.90
2018-10-03T14:25:08.164Z,3.73
2018-10-03T14:27:37.894Z,3.80
2018-10-03T14:30:07.862Z,3.57
2018-10-03T14:32:38.051Z,4.80
2018-10-03T14:35:07.932Z,5.50
2018-10-03T14:37:37.635Z,4.63
2018-10-03T14:40:07.162Z,2.93
2018-10-03T14:42:36.904Z,3.73
2018-10-03T14:45:07.408Z,3.57
2018-10-03T14:47:37.330Z,5.50
2018-10-03T14:50:07.944Z,3.10
2018-10-03T14:52:37.480Z,3.50
2018-10-03T14:55:07.765Z,3.03
2018-10-03T14:57:37.737Z,2.93
2018-10-03T15:00:08.218Z,4.10
2018-10-03T15:02:37.873Z,4.13
2018-10-03T15:05:08.453Z,5.10
2018-10-03T15:07:38.389Z,3.37
2018-10-03T15:10:08.394Z,4.33
2018-10-03T15:12:38.171Z,4.53
2018-10-03T15:15:08.845Z,3.07
2018-10-03T15:17:38.470Z,3.23
2018-10-03T15:20:08.793Z,4.63
2018-10-03T15:22:39.007Z,3.77
2018-10-03T15:25:10.272Z,4.10
2018-10-03T15:27:40.698Z,4.33
2018-10-03T15:30:10.517Z,3.50
2018-10-03T15:32:40.246Z,4.90
2018-10-03T15:35:09.915Z,4.10
2018-10-03T15:37:40.017Z,3.83
2018-10-03T15:40:09.779Z,3.93
2018-10-03T15:42:39.611Z,3.77
2018-10-03T15:45:11.047Z,4.13
2018-10-03T15:47:41.548Z,2.80
2018-10-03T15:50:11.732Z,2.40
2018-10-03T15:52:41.451Z,3.47
2018-10-03T15:55:11.224Z,2.77
2018-10-03T15:57:40.982Z,3.60
2018-10-03T16:00:10.817Z,4.47
2018-10-03T16:02:42.083Z,3.23
2018-10-03T16:05:12.890Z,3.07
2018-10-03T16:07:42.955Z,6.27
2018-10-03T16:10:16.184Z,3.73
2018-10-03T16:12:45.829Z,3.47
2018-10-03T16:15:15.733Z,4.37
2018-10-03T16:17:45.954Z,2.83
2018-10-03T16:20:15.886Z,3.87
2018-10-03T16:22:47.322Z,2.67
2018-10-03T16:25:16.796Z,3.80
2018-10-03T16:27:47.423Z,2.77
2018-10-03T16:30:17.767Z,5.37
2018-10-03T16:35:26.197Z,3.20
2018-10-03T16:37:55.377Z,3.43
2018-10-03T16:40:24.624Z,4.43
2018-10-03T16:42:53.829Z,3.77
2018-10-03T16:45:23.016Z,4.20
2018-10-03T16:47:52.575Z,3.30
2018-10-03T16:50:21.771Z,3.80
2018-10-03T16:52:51.118Z,6.73
2018-10-03T16:55:20.295Z,6.67
2018-10-03T16:57:49.459Z,7.40
2018-10-03T17:00:18.672Z,5.53
2018-10-03T17:02:47.840Z,4.83
2018-10-03T17:05:17.116Z,5.37
2018-10-03T17:07:46.373Z,3.07
2018-10-03T17:10:15.549Z,4.07
2018-10-03T17:12:44.740Z,4.50
2018-10-03T17:15:14.093Z,4.07
2018-10-03T17:17:43.205Z,3.27
2018-10-03T17:20:12.471Z,4.87
2018-10-03T17:22:41.819Z,5.10
2018-10-03T17:25:11.115Z,4.13
2018-10-03T17:27:40.273Z,6.23
2018-10-03T17:30:09.468Z,4.53
2018-10-03T17:32:38.829Z,4.80
2018-10-03T17:35:08.067Z,3.33
2018-10-03T17:37:37.416Z,5.07
2018-10-03T17:40:06.999Z,6.07
2018-10-03T17:42:36.377Z,4.40
2018-10-03T17:45:05.734Z,6.97
2018-10-03T17:47:34.918Z,4.60
2018-10-03T17:50:04.105Z,7.53
2018-10-03T17:52:33.233Z,5.97
2018-10-03T17:55:02.426Z,5.30
2018-10-03T17:57:31.581Z,8.27
2018-10-03T18:00:00.759Z,8.47
2018-10-03T18:02:29.952Z,8.20
2018-10-03T18:04:59.238Z,9.20
2018-10-03T18:07:28.458Z,9.83
2018-10-03T18:09:57.625Z,7.37
2018-10-03T18:12:26.965Z,6.60
2018-10-03T18:14:56.188Z,7.23
2018-10-03T18:17:25.409Z,6.37
2018-10-03T18:19:54.569Z,5.87
2018-10-03T18:22:24.767Z,5.80
2018-10-03T18:24:53.940Z,8.53
2018-10-03T18:27:29.654Z,8.17
2018-10-03T18:29:58.910Z,8.63
2018-10-03T18:32:28.304Z,10.27
2018-10-03T18:34:57.782Z,8.70
2018-10-03T18:37:27.318Z,10.73
2018-10-03T18:39:56.565Z,9.80
2018-10-03T18:42:26.000Z,7.77
2018-10-03T18:44:56.768Z,9.27
2018-10-03T18:47:26.372Z,7.17
2018-10-03T18:49:55.578Z,8.37
2018-10-03T18:52:25.088Z,6.70
2018-10-03T18:54:54.358Z,7.73
2018-10-03T18:57:23.864Z,7.07
2018-10-03T18:59:53.387Z,8.43
2018-10-03T19:02:22.625Z,7.53
2018-10-03T19:04:52.705Z,8.20
2018-10-03T19:07:22.297Z,8.37
2018-10-03T19:09:51.609Z,6.53
2018-10-03T19:12:21.209Z,5.87
2018-10-03T19:14:50.753Z,6.93
2018-10-03T19:17:20.043Z,7.63
2018-10-03T19:19:50.097Z,6.47
2018-10-03T19:22:19.953Z,7.53
2018-10-03T19:24:49.100Z,7.27
2018-10-03T19:27:18.738Z,7.10
2018-10-03T19:29:47.955Z,7.50
2018-10-03T19:32:17.207Z,7.87
2018-10-03T19:34:46.544Z,8.93
2018-10-03T19:37:15.809Z,8.03
2018-10-03T19:39:45.138Z,7.60
2018-10-03T19:42:14.520Z,8.30
2018-10-03T19:44:43.629Z,8.27
2018-10-03T19:47:13.420Z,9.67
2018-10-03T19:49:42.713Z,8.03
2018-10-03T19:52:11.979Z,9.87
2018-10-03T19:54:41.282Z,8.03
2018-10-03T19:57:10.646Z,7.33
2018-10-03T19:59:39.753Z,7.97
2018-10-03T20:02:09.925Z,6.60
2018-10-03T20:04:39.299Z,7.50
2018-10-03T20:07:08.551Z,8.83
2018-10-03T20:09:37.769Z,8.80
2018-10-03T20:12:07.445Z,6.50
2018-10-03T20:14:36.801Z,6.33
2018-10-03T20:17:06.130Z,6.57
2018-10-03T20:19:35.553Z,7.97
2018-10-03T20:22:05.364Z,7.53
2018-10-03T20:24:34.506Z,7.20
2018-10-03T20:27:03.781Z,7.73
2018-10-03T20:29:33.236Z,7.00
2018-10-03T20:32:02.561Z,6.33
2018-10-03T20:34:31.763Z,8.67
2018-10-03T20:37:01.046Z,7.10
2018-10-03T20:39:30.299Z,6.30
2018-10-03T20:41:59.437Z,6.17
2018-10-03T20:44:28.706Z,7.80
2018-10-03T20:46:58.050Z,7.70
2018-10-03T20:49:27.219Z,12.10
2018-10-03T20:51:56.640Z,9.23
2018-10-03T20:54:26.056Z,7.83
2018-10-03T20:56:55.253Z,8.77
2018-10-03T20:59:24.738Z,7.23
2018-10-03T21:01:54.054Z,7.70
2018-10-03T21:04:23.286Z,8.07
2018-10-03T21:06:52.589Z,7.23
2018-10-03T21:09:21.972Z,7.50
2018-10-03T21:11:51.210Z,7.37
2018-10-03T21:14:20.615Z,6.37
2018-10-03T21:16:49.797Z,8.87
2018-10-03T21:19:18.998Z,6.93
2018-10-03T21:21:48.295Z,7.03
2018-10-03T21:24:17.481Z,7.60
2018-10-03T21:26:46.645Z,9.23
2018-10-03T21:29:15.840Z,7.33
2018-10-03T21:31:45.005Z,9.50
2018-10-03T21:34:14.191Z,7.17
2018-10-03T21:36:43.364Z,7.20
2018-10-03T21:39:12.546Z,7.63
2018-10-03T21:41:41.744Z,8.17
2018-10-03T21:44:10.922Z,10.53
2018-10-03T21:46:40.113Z,7.70
2018-10-03T21:49:09.357Z,7.27
2018-10-03T21:51:38.644Z,8.83
2018-10-03T21:54:07.791Z,7.50
2018-10-03T21:56:36.946Z,7.03
2018-10-03T21:59:06.160Z,6.87
2018-10-03T22:01:35.329Z,9.67
2018-10-03T22:04:04.481Z,7.50
2018-10-03T22:06:33.620Z,7.30
2018-10-03T22:09:03.045Z,8.50
2018-10-03T22:11:32.193Z,9.87
2018-10-03T22:14:01.445Z,7.77
2018-10-03T22:16:30.636Z,7.73
2018-10-03T22:18:59.826Z,7.27
2018-10-03T22:21:29.029Z,7.83
2018-10-03T22:23:58.262Z,8.17
2018-10-03T22:26:27.418Z,8.83
2018-10-03T22:28:56.589Z,7.70
2018-10-03T22:31:25.765Z,7.43
2018-10-03T22:33:54.929Z,7.73
2018-10-03T22:36:24.185Z,8.57
2018-10-03T22:38:54.345Z,7.17
2018-10-03T22:41:23.553Z,7.60
2018-10-03T22:43:52.760Z,7.17
2018-10-03T22:46:21.925Z,7.17
2018-10-03T22:48:51.125Z,9.27
2018-10-03T22:51:20.315Z,8.07
2018-10-03T22:53:49.487Z,8.67
2018-10-03T22:56:18.771Z,7.13
2018-10-03T22:58:47.934Z,7.27
2018-10-03T23:01:17.113Z,7.90
2018-10-03T23:03:46.352Z,8.07
2018-10-03T23:06:15.637Z,7.93
2018-10-03T23:08:44.752Z,8.70
2018-10-03T23:11:13.896Z,9.07
2018-10-03T23:13:43.605Z,8.10
2018-10-03T23:16:12.764Z,8.30
2018-10-03T23:18:41.944Z,8.93
2018-10-03T23:21:11.179Z,9.93
2018-10-03T23:23:40.437Z,7.83
2018-10-03T23:26:09.635Z,9.23
2018-10-03T23:28:38.804Z,9.80
2018-10-03T23:31:07.993Z,7.93
2018-10-03T23:33:37.206Z,7.60
2018-10-03T23:36:06.425Z,7.73
2018-10-03T23:38:35.608Z,7.33
2018-10-03T23:41:04.765Z,7.63
2018-10-03T23:43:34.119Z,9.00
2018-10-03T23:46:03.325Z,8.13
2018-10-03T23:48:32.529Z,8.47
2018-10-03T23:51:01.701Z,7.83
2018-10-03T23:53:30.903Z,7.67
2018-10-03T23:56:00.043Z,7.43
2018-10-03T23:58:29.225Z,6.90
